sensor_id;sensor_type;location;lat;lon;timestamp;temperature;humidity
9941;DHT22;5009;50.656;7.188;2022-07-29T00:01:06;19.30;97.10
9941;DHT22;5009;50.656;7.188;2022-07-29T00:03:31;19.30;97.00
9941;DHT22;5009;50.656;7.188;2022-07-29T00:05:57;19.30;97.20
9941;DHT22;5009;50.656;7.188;2022-07-29T00:08:23;19.30;97.70
9941;DHT22;5009;50.656;7.188;2022-07-29T00:10:48;19.30;97.70
9941;DHT22;5009;50.656;7.188;2022-07-29T00:13:14;19.30;97.80
9941;DHT22;5009;50.656;7.188;2022-07-29T00:15:40;19.20;97.90
9941;DHT22;5009;50.656;7.188;2022-07-29T00:18:05;19.20;97.90
9941;DHT22;5009;50.656;7.188;2022-07-29T00:20:31;19.20;98.00
9941;DHT22;5009;50.656;7.188;2022-07-29T00:22:57;19.20;98.00
9941;DHT22;5009;50.656;7.188;2022-07-29T00:25:23;19.20;98.00
9941;DHT22;5009;50.656;7.188;2022-07-29T00:27:48;19.10;97.70
9941;DHT22;5009;50.656;7.188;2022-07-29T00:30:14;19.10;97.80
9941;DHT22;5009;50.656;7.188;2022-07-29T00:32:40;19.10;97.90
9941;DHT22;5009;50.656;7.188;2022-07-29T00:35:06;19.10;98.20
9941;DHT22;5009;50.656;7.188;2022-07-29T00:37:51;19.10;98.40
9941;DHT22;5009;50.656;7.188;2022-07-29T00:40:16;19.10;98.50
9941;DHT22;5009;50.656;7.188;2022-07-29T00:42:50;19.10;98.60
9941;DHT22;5009;50.656;7.188;2022-07-29T00:45:16;19.00;98.40
9941;DHT22;5009;50.656;7.188;2022-07-29T00:47:42;18.90;98.10
9941;DHT22;5009;50.656;7.188;2022-07-29T00:50:10;18.90;97.90
9941;DHT22;5009;50.656;7.188;2022-07-29T00:52:39;18.90;98.10
9941;DHT22;5009;50.656;7.188;2022-07-29T00:55:07;18.90;98.10
9941;DHT22;5009;50.656;7.188;2022-07-29T00:57:34;19.00;98.10
9941;DHT22;5009;50.656;7.188;2022-07-29T01:00:00;19.00;98.20
9941;DHT22;5009;50.656;7.188;2022-07-29T01:02:25;19.00;98.50
9941;DHT22;5009;50.656;7.188;2022-07-29T01:04:51;19.00;98.80
9941;DHT22;5009;50.656;7.188;2022-07-29T01:07:17;19.00;99.20
9941;DHT22;5009;50.656;7.188;2022-07-29T01:09:45;19.00;99.10
9941;DHT22;5009;50.656;7.188;2022-07-29T01:12:18;18.90;98.90
9941;DHT22;5009;50.656;7.188;2022-07-29T01:14:45;18.90;98.90
9941;DHT22;5009;50.656;7.188;2022-07-29T01:17:43;18.90;98.90
9941;DHT22;5009;50.656;7.188;2022-07-29T01:20:42;18.80;98.90
9941;DHT22;5009;50.656;7.188;2022-07-29T01:25:54;18.70;99.00
9941;DHT22;5009;50.656;7.188;2022-07-29T01:28:47;18.70;99.00
9941;DHT22;5009;50.656;7.188;2022-07-29T01:31:18;18.70;99.40
9941;DHT22;5009;50.656;7.188;2022-07-29T01:33:48;18.60;99.70
9941;DHT22;5009;50.656;7.188;2022-07-29T01:36:23;18.60;99.80
9941;DHT22;5009;50.656;7.188;2022-07-29T01:39:06;18.60;99.90
9941;DHT22;5009;50.656;7.188;2022-07-29T01:41:37;18.50;99.90
9941;DHT22;5009;50.656;7.188;2022-07-29T01:44:13;18.40;99.90
9941;DHT22;5009;50.656;7.188;2022-07-29T01:46:45;18.40;99.90
9941;DHT22;5009;50.656;7.188;2022-07-29T01:49:20;18.40;99.90
9941;DHT22;5009;50.656;7.188;2022-07-29T01:51:50;18.40;99.90
9941;DHT22;5009;50.656;7.188;2022-07-29T01:54:38;18.30;99.90
9941;DHT22;5009;50.656;7.188;2022-07-29T01:57:06;18.30;99.90
9941;DHT22;5009;50.656;7.188;2022-07-29T01:59:34;18.30;99.90
9941;DHT22;5009;50.656;7.188;2022-07-29T02:02:02;18.20;99.90
9941;DHT22;5009;50.656;7.188;2022-07-29T02:04:29;18.20;99.90
9941;DHT22;5009;50.656;7.188;2022-07-29T02:06:58;18.20;99.90
9941;DHT22;5009;50.656;7.188;2022-07-29T02:09:25;18.20;99.90
9941;DHT22;5009;50.656;7.188;2022-07-29T02:11:53;18.10;99.90
9941;DHT22;5009;50.656;7.188;2022-07-29T02:14:22;18.10;99.90
9941;DHT22;5009;50.656;7.188;2022-07-29T02:16:51;18.00;99.90
9941;DHT22;5009;50.656;7.188;2022-07-29T02:19:19;17.90;99.90
9941;DHT22;5009;50.656;7.188;2022-07-29T02:21:46;17.90;99.90
9941;DHT22;5009;50.656;7.188;2022-07-29T02:24:14;17.90;99.90
9941;DHT22;5009;50.656;7.188;2022-07-29T02:26:43;17.70;99.90
9941;DHT22;5009;50.656;7.188;2022-07-29T02:29:10;17.60;99.90
9941;DHT22;5009;50.656;7.188;2022-07-29T02:31:36;17.60;99.90
9941;DHT22;5009;50.656;7.188;2022-07-29T02:34:06;17.60;99.90
9941;DHT22;5009;50.656;7.188;2022-07-29T02:36:34;17.60;99.90
9941;DHT22;5009;50.656;7.188;2022-07-29T02:39:02;17.60;99.90
9941;DHT22;5009;50.656;7.188;2022-07-29T02:41:33;17.60;99.90
9941;DHT22;5009;50.656;7.188;2022-07-29T02:44:06;17.50;99.90
9941;DHT22;5009;50.656;7.188;2022-07-29T02:46:36;17.50;99.90
9941;DHT22;5009;50.656;7.188;2022-07-29T02:49:10;17.50;99.90
9941;DHT22;5009;50.656;7.188;2022-07-29T02:51:59;17.30;99.90
9941;DHT22;5009;50.656;7.188;2022-07-29T02:54:42;17.30;99.90
9941;DHT22;5009;50.656;7.188;2022-07-29T02:57:17;17.30;99.90
9941;DHT22;5009;50.656;7.188;2022-07-29T02:59:45;17.30;99.90
9941;DHT22;5009;50.656;7.188;2022-07-29T03:02:13;17.20;99.90
9941;DHT22;5009;50.656;7.188;2022-07-29T03:04:41;17.20;99.90
9941;DHT22;5009;50.656;7.188;2022-07-29T03:07:08;17.20;99.90
9941;DHT22;5009;50.656;7.188;2022-07-29T03:09:36;17.20;99.90
9941;DHT22;5009;50.656;7.188;2022-07-29T03:12:03;17.10;99.90
9941;DHT22;5009;50.656;7.188;2022-07-29T03:14:30;17.10;99.90
9941;DHT22;5009;50.656;7.188;2022-07-29T03:16:56;17.00;99.90
9941;DHT22;5009;50.656;7.188;2022-07-29T03:19:22;17.00;99.90
9941;DHT22;5009;50.656;7.188;2022-07-29T03:21:48;16.90;99.90
9941;DHT22;5009;50.656;7.188;2022-07-29T03:24:30;16.90;99.90
9941;DHT22;5009;50.656;7.188;2022-07-29T03:26:56;16.80;99.90
9941;DHT22;5009;50.656;7.188;2022-07-29T03:29:22;16.80;99.90
9941;DHT22;5009;50.656;7.188;2022-07-29T03:31:48;16.70;99.90
9941;DHT22;5009;50.656;7.188;2022-07-29T03:34:14;16.70;99.90
9941;DHT22;5009;50.656;7.188;2022-07-29T03:36:39;16.60;99.90
9941;DHT22;5009;50.656;7.188;2022-07-29T03:39:05;16.60;99.90
9941;DHT22;5009;50.656;7.188;2022-07-29T03:41:33;16.60;99.90
9941;DHT22;5009;50.656;7.188;2022-07-29T03:44:00;16.50;99.90
9941;DHT22;5009;50.656;7.188;2022-07-29T03:46:26;16.40;99.90
9941;DHT22;5009;50.656;7.188;2022-07-29T03:49:01;16.40;99.90
9941;DHT22;5009;50.656;7.188;2022-07-29T03:51:28;16.40;99.90
9941;DHT22;5009;50.656;7.188;2022-07-29T03:53:54;16.40;99.90
9941;DHT22;5009;50.656;7.188;2022-07-29T03:56:22;16.50;99.90
9941;DHT22;5009;50.656;7.188;2022-07-29T03:58:52;16.50;99.90
9941;DHT22;5009;50.656;7.188;2022-07-29T04:01:19;16.50;99.90
9941;DHT22;5009;50.656;7.188;2022-07-29T04:03:45;16.50;99.90
9941;DHT22;5009;50.656;7.188;2022-07-29T04:06:11;16.40;99.90
9941;DHT22;5009;50.656;7.188;2022-07-29T04:08:37;16.40;99.90
9941;DHT22;5009;50.656;7.188;2022-07-29T04:11:03;16.50;99.90
9941;DHT22;5009;50.656;7.188;2022-07-29T04:13:29;16.50;99.90
9941;DHT22;5009;50.656;7.188;2022-07-29T04:15:55;16.50;99.90
9941;DHT22;5009;50.656;7.188;2022-07-29T04:18:21;16.50;99.90
9941;DHT22;5009;50.656;7.188;2022-07-29T04:20:46;16.40;99.90
9941;DHT22;5009;50.656;7.188;2022-07-29T04:23:12;16.40;99.90
9941;DHT22;5009;50.656;7.188;2022-07-29T04:25:39;16.50;99.90
9941;DHT22;5009;50.656;7.188;2022-07-29T04:28:05;16.60;99.90
9941;DHT22;5009;50.656;7.188;2022-07-29T04:30:32;16.70;99.90
9941;DHT22;5009;50.656;7.188;2022-07-29T04:32:58;16.70;99.90
9941;DHT22;5009;50.656;7.188;2022-07-29T04:35:26;16.80;99.90
9941;DHT22;5009;50.656;7.188;2022-07-29T04:37:52;16.90;99.90
9941;DHT22;5009;50.656;7.188;2022-07-29T04:40:18;17.00;99.90
9941;DHT22;5009;50.656;7.188;2022-07-29T04:42:43;17.20;99.90
9941;DHT22;5009;50.656;7.188;2022-07-29T04:45:09;17.30;99.90
9941;DHT22;5009;50.656;7.188;2022-07-29T04:47:35;17.40;99.90
9941;DHT22;5009;50.656;7.188;2022-07-29T04:50:00;17.60;99.90
9941;DHT22;5009;50.656;7.188;2022-07-29T04:52:26;17.80;99.90
9941;DHT22;5009;50.656;7.188;2022-07-29T04:54:52;18.00;99.90
9941;DHT22;5009;50.656;7.188;2022-07-29T04:57:18;18.20;99.90
9941;DHT22;5009;50.656;7.188;2022-07-29T04:59:44;18.50;99.90
9941;DHT22;5009;50.656;7.188;2022-07-29T05:02:09;18.80;99.90
9941;DHT22;5009;50.656;7.188;2022-07-29T05:04:35;18.90;99.90
9941;DHT22;5009;50.656;7.188;2022-07-29T05:07:00;19.20;99.40
9941;DHT22;5009;50.656;7.188;2022-07-29T05:09:26;19.70;98.40
9941;DHT22;5009;50.656;7.188;2022-07-29T05:11:51;20.30;97.00
9941;DHT22;5009;50.656;7.188;2022-07-29T05:14:17;21.10;95.10
9941;DHT22;5009;50.656;7.188;2022-07-29T05:16:42;22.00;93.80
9941;DHT22;5009;50.656;7.188;2022-07-29T05:19:08;22.60;92.30
9941;DHT22;5009;50.656;7.188;2022-07-29T05:21:34;22.70;91.70
9941;DHT22;5009;50.656;7.188;2022-07-29T05:24:00;22.50;91.80
9941;DHT22;5009;50.656;7.188;2022-07-29T05:26:25;22.20;92.10
9941;DHT22;5009;50.656;7.188;2022-07-29T05:28:51;21.90;92.40
9941;DHT22;5009;50.656;7.188;2022-07-29T05:31:16;21.70;92.70
9941;DHT22;5009;50.656;7.188;2022-07-29T05:33:42;21.60;93.20
9941;DHT22;5009;50.656;7.188;2022-07-29T05:36:08;21.60;93.30
9941;DHT22;5009;50.656;7.188;2022-07-29T05:38:34;21.70;93.70
9941;DHT22;5009;50.656;7.188;2022-07-29T05:41:00;21.70;93.70
9941;DHT22;5009;50.656;7.188;2022-07-29T05:43:27;21.70;93.40
9941;DHT22;5009;50.656;7.188;2022-07-29T05:45:53;21.70;93.40
9941;DHT22;5009;50.656;7.188;2022-07-29T05:48:18;21.80;93.30
9941;DHT22;5009;50.656;7.188;2022-07-29T05:50:44;21.90;93.30
9941;DHT22;5009;50.656;7.188;2022-07-29T05:53:10;21.90;93.00
9941;DHT22;5009;50.656;7.188;2022-07-29T05:55:35;22.10;92.90
9941;DHT22;5009;50.656;7.188;2022-07-29T05:58:01;22.60;92.60
9941;DHT22;5009;50.656;7.188;2022-07-29T06:00:26;23.40;91.20
9941;DHT22;5009;50.656;7.188;2022-07-29T06:02:52;24.40;90.10
9941;DHT22;5009;50.656;7.188;2022-07-29T06:05:17;26.20;85.00
9941;DHT22;5009;50.656;7.188;2022-07-29T06:07:43;28.30;77.40
9941;DHT22;5009;50.656;7.188;2022-07-29T06:10:09;30.30;69.60
9941;DHT22;5009;50.656;7.188;2022-07-29T06:12:35;32.00;60.40
9941;DHT22;5009;50.656;7.188;2022-07-29T06:15:01;32.60;56.70
9941;DHT22;5009;50.656;7.188;2022-07-29T06:17:27;33.70;54.70
9941;DHT22;5009;50.656;7.188;2022-07-29T06:19:53;34.60;52.00
9941;DHT22;5009;50.656;7.188;2022-07-29T06:22:18;35.00;50.00
9941;DHT22;5009;50.656;7.188;2022-07-29T06:24:44;35.40;48.70
9941;DHT22;5009;50.656;7.188;2022-07-29T06:27:10;35.80;47.70
9941;DHT22;5009;50.656;7.188;2022-07-29T06:29:36;36.20;46.00
9941;DHT22;5009;50.656;7.188;2022-07-29T06:32:02;35.60;45.60
9941;DHT22;5009;50.656;7.188;2022-07-29T06:34:28;34.40;45.40
9941;DHT22;5009;50.656;7.188;2022-07-29T06:36:53;33.20;46.50
9941;DHT22;5009;50.656;7.188;2022-07-29T06:39:19;32.20;46.70
9941;DHT22;5009;50.656;7.188;2022-07-29T06:41:48;31.80;47.10
9941;DHT22;5009;50.656;7.188;2022-07-29T06:44:15;31.90;47.30
9941;DHT22;5009;50.656;7.188;2022-07-29T06:46:40;31.40;47.00
9941;DHT22;5009;50.656;7.188;2022-07-29T06:49:07;30.40;47.40
9941;DHT22;5009;50.656;7.188;2022-07-29T06:51:33;29.70;48.40
9941;DHT22;5009;50.656;7.188;2022-07-29T06:53:58;29.10;49.20
9941;DHT22;5009;50.656;7.188;2022-07-29T06:56:24;28.80;50.00
9941;DHT22;5009;50.656;7.188;2022-07-29T06:58:50;28.60;50.50
9941;DHT22;5009;50.656;7.188;2022-07-29T07:01:15;28.30;50.60
9941;DHT22;5009;50.656;7.188;2022-07-29T07:03:41;27.90;50.60
9941;DHT22;5009;50.656;7.188;2022-07-29T07:06:07;27.30;51.30
9941;DHT22;5009;50.656;7.188;2022-07-29T07:08:33;27.10;52.00
9941;DHT22;5009;50.656;7.188;2022-07-29T07:10:59;27.70;52.50
9941;DHT22;5009;50.656;7.188;2022-07-29T07:13:25;28.20;51.60
9941;DHT22;5009;50.656;7.188;2022-07-29T07:15:50;28.20;51.20
9941;DHT22;5009;50.656;7.188;2022-07-29T07:18:17;27.80;51.20
9941;DHT22;5009;50.656;7.188;2022-07-29T07:20:44;27.80;51.70
9941;DHT22;5009;50.656;7.188;2022-07-29T07:23:10;27.70;51.70
9941;DHT22;5009;50.656;7.188;2022-07-29T07:25:35;27.60;52.20
9941;DHT22;5009;50.656;7.188;2022-07-29T07:28:02;27.40;52.30
9941;DHT22;5009;50.656;7.188;2022-07-29T07:30:29;27.40;52.60
9941;DHT22;5009;50.656;7.188;2022-07-29T07:32:55;27.90;53.00
9941;DHT22;5009;50.656;7.188;2022-07-29T07:35:21;28.90;52.60
9941;DHT22;5009;50.656;7.188;2022-07-29T07:37:47;30.60;50.80
9941;DHT22;5009;50.656;7.188;2022-07-29T07:40:13;32.10;49.80
9941;DHT22;5009;50.656;7.188;2022-07-29T07:42:39;33.70;48.00
9941;DHT22;5009;50.656;7.188;2022-07-29T07:45:06;34.70;46.70
9941;DHT22;5009;50.656;7.188;2022-07-29T07:47:34;35.80;45.20
9941;DHT22;5009;50.656;7.188;2022-07-29T07:50:00;36.80;44.30
9941;DHT22;5009;50.656;7.188;2022-07-29T07:52:26;37.80;43.00
9941;DHT22;5009;50.656;7.188;2022-07-29T07:54:51;38.40;41.80
9941;DHT22;5009;50.656;7.188;2022-07-29T07:57:18;38.80;41.30
9941;DHT22;5009;50.656;7.188;2022-07-29T07:59:43;39.70;40.40
9941;DHT22;5009;50.656;7.188;2022-07-29T08:02:09;40.40;39.80
9941;DHT22;5009;50.656;7.188;2022-07-29T08:04:35;40.70;38.60
9941;DHT22;5009;50.656;7.188;2022-07-29T08:07:01;40.30;38.50
9941;DHT22;5009;50.656;7.188;2022-07-29T08:09:28;39.50;38.60
9941;DHT22;5009;50.656;7.188;2022-07-29T08:11:55;38.80;38.50
9941;DHT22;5009;50.656;7.188;2022-07-29T08:14:21;37.90;38.80
9941;DHT22;5009;50.656;7.188;2022-07-29T08:16:47;36.70;39.10
9941;DHT22;5009;50.656;7.188;2022-07-29T08:19:12;36.00;39.50
9941;DHT22;5009;50.656;7.188;2022-07-29T08:21:38;35.60;39.70
9941;DHT22;5009;50.656;7.188;2022-07-29T08:24:05;34.80;40.10
9941;DHT22;5009;50.656;7.188;2022-07-29T08:26:49;34.10;40.40
9941;DHT22;5009;50.656;7.188;2022-07-29T08:29:15;34.00;40.40
9941;DHT22;5009;50.656;7.188;2022-07-29T08:31:41;33.90;40.90
9941;DHT22;5009;50.656;7.188;2022-07-29T08:34:07;33.80;40.70
9941;DHT22;5009;50.656;7.188;2022-07-29T08:36:33;33.60;40.80
9941;DHT22;5009;50.656;7.188;2022-07-29T08:38:59;33.50;40.70
9941;DHT22;5009;50.656;7.188;2022-07-29T08:41:26;33.50;40.70
9941;DHT22;5009;50.656;7.188;2022-07-29T08:43:52;33.40;40.40
9941;DHT22;5009;50.656;7.188;2022-07-29T08:46:18;33.40;41.00
9941;DHT22;5009;50.656;7.188;2022-07-29T08:48:44;33.20;40.40
9941;DHT22;5009;50.656;7.188;2022-07-29T08:51:17;32.60;40.40
9941;DHT22;5009;50.656;7.188;2022-07-29T08:53:44;32.60;40.10
9941;DHT22;5009;50.656;7.188;2022-07-29T08:56:13;32.40;40.40
9941;DHT22;5009;50.656;7.188;2022-07-29T08:58:39;32.00;40.40
9941;DHT22;5009;50.656;7.188;2022-07-29T09:01:06;32.20;40.60
9941;DHT22;5009;50.656;7.188;2022-07-29T09:03:34;31.70;39.80
9941;DHT22;5009;50.656;7.188;2022-07-29T09:06:01;31.50;40.10
9941;DHT22;5009;50.656;7.188;2022-07-29T09:08:27;31.60;40.10
9941;DHT22;5009;50.656;7.188;2022-07-29T09:10:55;31.80;40.50
9941;DHT22;5009;50.656;7.188;2022-07-29T09:13:22;31.80;40.40
9941;DHT22;5009;50.656;7.188;2022-07-29T09:15:47;31.50;40.00
9941;DHT22;5009;50.656;7.188;2022-07-29T09:21:02;31.60;40.30
9941;DHT22;5009;50.656;7.188;2022-07-29T09:24:06;31.70;40.80
9941;DHT22;5009;50.656;7.188;2022-07-29T09:26:35;31.50;40.40
9941;DHT22;5009;50.656;7.188;2022-07-29T09:29:11;31.50;40.60
9941;DHT22;5009;50.656;7.188;2022-07-29T09:31:39;31.40;40.40
9941;DHT22;5009;50.656;7.188;2022-07-29T09:34:06;31.20;40.80
9941;DHT22;5009;50.656;7.188;2022-07-29T09:36:43;31.20;40.90
9941;DHT22;5009;50.656;7.188;2022-07-29T09:39:09;31.30;41.10
9941;DHT22;5009;50.656;7.188;2022-07-29T09:41:52;31.40;41.20
9941;DHT22;5009;50.656;7.188;2022-07-29T09:44:21;31.30;41.00
9941;DHT22;5009;50.656;7.188;2022-07-29T09:46:59;31.30;41.10
9941;DHT22;5009;50.656;7.188;2022-07-29T09:49:31;31.20;41.10
9941;DHT22;5009;50.656;7.188;2022-07-29T09:52:03;30.80;40.90
9941;DHT22;5009;50.656;7.188;2022-07-29T09:54:29;30.60;41.00
9941;DHT22;5009;50.656;7.188;2022-07-29T09:56:59;30.80;41.20
9941;DHT22;5009;50.656;7.188;2022-07-29T09:59:25;30.60;41.30
9941;DHT22;5009;50.656;7.188;2022-07-29T10:01:52;30.70;41.70
9941;DHT22;5009;50.656;7.188;2022-07-29T10:04:18;30.70;41.50
9941;DHT22;5009;50.656;7.188;2022-07-29T10:07:01;30.80;41.50
9941;DHT22;5009;50.656;7.188;2022-07-29T10:09:27;30.70;41.20
9941;DHT22;5009;50.656;7.188;2022-07-29T10:12:10;30.70;41.20
9941;DHT22;5009;50.656;7.188;2022-07-29T10:14:37;30.00;41.10
9941;DHT22;5009;50.656;7.188;2022-07-29T10:17:04;30.10;41.60
9941;DHT22;5009;50.656;7.188;2022-07-29T10:19:31;30.30;42.10
9941;DHT22;5009;50.656;7.188;2022-07-29T10:22:02;30.40;41.80
9941;DHT22;5009;50.656;7.188;2022-07-29T10:24:29;30.30;42.00
9941;DHT22;5009;50.656;7.188;2022-07-29T10:26:56;30.30;42.20
9941;DHT22;5009;50.656;7.188;2022-07-29T10:29:23;30.40;42.30
9941;DHT22;5009;50.656;7.188;2022-07-29T10:32:02;30.40;42.10
9941;DHT22;5009;50.656;7.188;2022-07-29T10:43:00;29.90;42.30
9941;DHT22;5009;50.656;7.188;2022-07-29T10:45:29;29.70;42.70
9941;DHT22;5009;50.656;7.188;2022-07-29T10:48:04;29.70;42.60
9941;DHT22;5009;50.656;7.188;2022-07-29T10:50:53;29.80;43.00
9941;DHT22;5009;50.656;7.188;2022-07-29T10:53:23;29.70;43.00
9941;DHT22;5009;50.656;7.188;2022-07-29T10:55:50;29.60;43.30
9941;DHT22;5009;50.656;7.188;2022-07-29T10:58:23;29.50;43.20
9941;DHT22;5009;50.656;7.188;2022-07-29T11:00:52;29.70;43.80
9941;DHT22;5009;50.656;7.188;2022-07-29T11:06:07;29.70;43.80
9941;DHT22;5009;50.656;7.188;2022-07-29T11:08:33;29.80;43.90
9941;DHT22;5009;50.656;7.188;2022-07-29T11:11:36;29.70;44.10
9941;DHT22;5009;50.656;7.188;2022-07-29T11:14:02;29.50;44.10
9941;DHT22;5009;50.656;7.188;2022-07-29T11:17:00;29.50;43.90
9941;DHT22;5009;50.656;7.188;2022-07-29T11:19:29;29.40;43.80
9941;DHT22;5009;50.656;7.188;2022-07-29T11:21:55;29.20;44.20
9941;DHT22;5009;50.656;7.188;2022-07-29T11:24:23;29.10;44.00
9941;DHT22;5009;50.656;7.188;2022-07-29T11:27:18;29.30;44.00
9941;DHT22;5009;50.656;7.188;2022-07-29T11:30:03;29.40;44.20
9941;DHT22;5009;50.656;7.188;2022-07-29T11:32:39;29.30;43.80
9941;DHT22;5009;50.656;7.188;2022-07-29T11:35:34;29.20;44.00
9941;DHT22;5009;50.656;7.188;2022-07-29T11:38:26;29.00;44.10
9941;DHT22;5009;50.656;7.188;2022-07-29T11:43:53;29.00;44.70
9941;DHT22;5009;50.656;7.188;2022-07-29T11:46:45;29.10;45.00
9941;DHT22;5009;50.656;7.188;2022-07-29T11:49:12;29.20;44.90
9941;DHT22;5009;50.656;7.188;2022-07-29T11:51:39;29.00;44.60
9941;DHT22;5009;50.656;7.188;2022-07-29T11:54:05;29.00;44.60
9941;DHT22;5009;50.656;7.188;2022-07-29T11:56:34;28.80;44.50
9941;DHT22;5009;50.656;7.188;2022-07-29T11:59:06;28.80;44.60
9941;DHT22;5009;50.656;7.188;2022-07-29T12:01:34;28.70;44.80
9941;DHT22;5009;50.656;7.188;2022-07-29T12:04:07;28.60;44.70
9941;DHT22;5009;50.656;7.188;2022-07-29T12:06:34;28.60;44.80
9941;DHT22;5009;50.656;7.188;2022-07-29T12:08:59;28.70;45.30
9941;DHT22;5009;50.656;7.188;2022-07-29T12:11:25;28.90;45.60
9941;DHT22;5009;50.656;7.188;2022-07-29T12:13:51;28.90;45.70
9941;DHT22;5009;50.656;7.188;2022-07-29T12:16:17;29.00;45.60
9941;DHT22;5009;50.656;7.188;2022-07-29T12:18:58;29.10;46.00
9941;DHT22;5009;50.656;7.188;2022-07-29T12:21:24;29.10;45.70
9941;DHT22;5009;50.656;7.188;2022-07-29T12:23:55;29.20;45.40
9941;DHT22;5009;50.656;7.188;2022-07-29T12:26:21;29.10;45.40
9941;DHT22;5009;50.656;7.188;2022-07-29T12:28:46;29.10;45.90
9941;DHT22;5009;50.656;7.188;2022-07-29T12:31:15;29.20;46.10
9941;DHT22;5009;50.656;7.188;2022-07-29T12:33:42;29.30;46.10
9941;DHT22;5009;50.656;7.188;2022-07-29T12:36:08;29.40;46.00
9941;DHT22;5009;50.656;7.188;2022-07-29T12:38:34;29.50;45.80
9941;DHT22;5009;50.656;7.188;2022-07-29T12:41:01;29.50;45.80
9941;DHT22;5009;50.656;7.188;2022-07-29T12:43:26;29.50;45.70
9941;DHT22;5009;50.656;7.188;2022-07-29T12:45:56;29.40;45.40
9941;DHT22;5009;50.656;7.188;2022-07-29T12:48:35;29.20;45.20
9941;DHT22;5009;50.656;7.188;2022-07-29T12:51:02;29.30;45.60
9941;DHT22;5009;50.656;7.188;2022-07-29T12:53:29;29.10;45.10
9941;DHT22;5009;50.656;7.188;2022-07-29T12:55:56;29.10;45.10
9941;DHT22;5009;50.656;7.188;2022-07-29T12:58:34;29.00;45.10
9941;DHT22;5009;50.656;7.188;2022-07-29T13:01:05;28.80;45.00
9941;DHT22;5009;50.656;7.188;2022-07-29T13:03:45;28.90;45.40
9941;DHT22;5009;50.656;7.188;2022-07-29T13:06:41;29.00;45.50
9941;DHT22;5009;50.656;7.188;2022-07-29T13:09:15;29.10;45.00
9941;DHT22;5009;50.656;7.188;2022-07-29T13:11:44;29.10;45.00
9941;DHT22;5009;50.656;7.188;2022-07-29T13:14:12;29.20;45.50
9941;DHT22;5009;50.656;7.188;2022-07-29T13:17:02;29.20;45.20
9941;DHT22;5009;50.656;7.188;2022-07-29T13:19:49;29.10;45.20
9941;DHT22;5009;50.656;7.188;2022-07-29T13:22:25;29.10;45.00
9941;DHT22;5009;50.656;7.188;2022-07-29T13:24:55;29.10;44.90
9941;DHT22;5009;50.656;7.188;2022-07-29T13:27:29;29.00;45.10
9941;DHT22;5009;50.656;7.188;2022-07-29T13:29:57;28.90;44.80
9941;DHT22;5009;50.656;7.188;2022-07-29T13:32:24;28.70;44.90
9941;DHT22;5009;50.656;7.188;2022-07-29T13:34:51;28.50;45.20
9941;DHT22;5009;50.656;7.188;2022-07-29T13:37:17;28.50;45.30
9941;DHT22;5009;50.656;7.188;2022-07-29T13:39:43;28.50;45.30
9941;DHT22;5009;50.656;7.188;2022-07-29T13:42:08;28.50;45.70
9941;DHT22;5009;50.656;7.188;2022-07-29T13:44:35;28.60;45.90
9941;DHT22;5009;50.656;7.188;2022-07-29T13:47:00;28.40;45.40
9941;DHT22;5009;50.656;7.188;2022-07-29T13:49:27;28.10;45.40
9941;DHT22;5009;50.656;7.188;2022-07-29T13:51:53;28.10;45.60
9941;DHT22;5009;50.656;7.188;2022-07-29T13:54:19;28.10;45.90
9941;DHT22;5009;50.656;7.188;2022-07-29T13:56:44;28.00;46.00
9941;DHT22;5009;50.656;7.188;2022-07-29T13:59:11;28.00;46.00
9941;DHT22;5009;50.656;7.188;2022-07-29T14:01:37;27.80;46.00
9941;DHT22;5009;50.656;7.188;2022-07-29T14:04:03;27.70;45.80
9941;DHT22;5009;50.656;7.188;2022-07-29T14:06:29;27.60;46.30
9941;DHT22;5009;50.656;7.188;2022-07-29T14:08:54;27.60;46.20
9941;DHT22;5009;50.656;7.188;2022-07-29T14:11:20;27.60;46.20
9941;DHT22;5009;50.656;7.188;2022-07-29T14:13:46;27.70;46.10
9941;DHT22;5009;50.656;7.188;2022-07-29T14:16:12;27.70;46.20
9941;DHT22;5009;50.656;7.188;2022-07-29T14:18:37;27.80;46.20
9941;DHT22;5009;50.656;7.188;2022-07-29T14:21:03;27.90;46.50
9941;DHT22;5009;50.656;7.188;2022-07-29T14:23:29;27.90;46.40
9941;DHT22;5009;50.656;7.188;2022-07-29T14:25:54;27.90;46.30
9941;DHT22;5009;50.656;7.188;2022-07-29T14:28:20;28.00;46.40
9941;DHT22;5009;50.656;7.188;2022-07-29T14:30:45;27.90;46.10
9941;DHT22;5009;50.656;7.188;2022-07-29T14:33:11;28.00;46.50
9941;DHT22;5009;50.656;7.188;2022-07-29T14:35:37;28.00;46.40
9941;DHT22;5009;50.656;7.188;2022-07-29T14:38:03;28.10;46.40
9941;DHT22;5009;50.656;7.188;2022-07-29T14:40:28;28.10;46.50
9941;DHT22;5009;50.656;7.188;2022-07-29T14:42:54;28.00;46.00
9941;DHT22;5009;50.656;7.188;2022-07-29T14:45:19;28.00;45.90
9941;DHT22;5009;50.656;7.188;2022-07-29T14:47:45;27.80;45.90
9941;DHT22;5009;50.656;7.188;2022-07-29T14:50:11;27.70;45.90
9941;DHT22;5009;50.656;7.188;2022-07-29T14:52:37;27.70;46.30
9941;DHT22;5009;50.656;7.188;2022-07-29T14:55:03;27.80;46.20
9941;DHT22;5009;50.656;7.188;2022-07-29T14:57:29;27.70;46.20
9941;DHT22;5009;50.656;7.188;2022-07-29T14:59:55;27.80;46.20
9941;DHT22;5009;50.656;7.188;2022-07-29T15:02:21;27.70;45.80
9941;DHT22;5009;50.656;7.188;2022-07-29T15:04:46;27.70;46.00
9941;DHT22;5009;50.656;7.188;2022-07-29T15:07:13;27.70;46.00
9941;DHT22;5009;50.656;7.188;2022-07-29T15:09:39;27.80;46.10
9941;DHT22;5009;50.656;7.188;2022-07-29T15:12:05;27.80;45.90
9941;DHT22;5009;50.656;7.188;2022-07-29T15:14:31;27.70;45.70
9941;DHT22;5009;50.656;7.188;2022-07-29T15:16:57;27.70;46.10
9941;DHT22;5009;50.656;7.188;2022-07-29T15:19:22;27.70;46.50
9941;DHT22;5009;50.656;7.188;2022-07-29T15:21:48;27.80;46.70
9941;DHT22;5009;50.656;7.188;2022-07-29T15:24:14;27.90;46.70
9941;DHT22;5009;50.656;7.188;2022-07-29T15:26:39;27.80;46.80
9941;DHT22;5009;50.656;7.188;2022-07-29T15:29:05;27.80;46.60
9941;DHT22;5009;50.656;7.188;2022-07-29T15:31:31;27.60;46.30
9941;DHT22;5009;50.656;7.188;2022-07-29T15:34:00;27.60;46.80
9941;DHT22;5009;50.656;7.188;2022-07-29T15:36:25;27.60;46.80
9941;DHT22;5009;50.656;7.188;2022-07-29T15:38:54;27.50;47.00
9941;DHT22;5009;50.656;7.188;2022-07-29T15:41:21;27.50;46.90
9941;DHT22;5009;50.656;7.188;2022-07-29T15:43:47;27.40;47.30
9941;DHT22;5009;50.656;7.188;2022-07-29T15:46:14;27.40;47.80
9941;DHT22;5009;50.656;7.188;2022-07-29T15:48:59;27.30;47.80
9941;DHT22;5009;50.656;7.188;2022-07-29T15:51:24;27.30;48.10
9941;DHT22;5009;50.656;7.188;2022-07-29T15:53:50;27.20;48.20
9941;DHT22;5009;50.656;7.188;2022-07-29T15:56:16;27.00;48.20
9941;DHT22;5009;50.656;7.188;2022-07-29T15:58:42;27.10;48.50
9941;DHT22;5009;50.656;7.188;2022-07-29T16:01:07;27.00;48.60
9941;DHT22;5009;50.656;7.188;2022-07-29T16:03:33;27.00;48.70
9941;DHT22;5009;50.656;7.188;2022-07-29T16:05:59;26.90;48.80
9941;DHT22;5009;50.656;7.188;2022-07-29T16:08:24;26.90;48.60
9941;DHT22;5009;50.656;7.188;2022-07-29T16:10:50;26.80;48.50
9941;DHT22;5009;50.656;7.188;2022-07-29T16:13:15;26.70;48.50
9941;DHT22;5009;50.656;7.188;2022-07-29T16:15:41;26.70;48.50
9941;DHT22;5009;50.656;7.188;2022-07-29T16:18:07;26.70;48.60
9941;DHT22;5009;50.656;7.188;2022-07-29T16:20:34;26.70;48.60
9941;DHT22;5009;50.656;7.188;2022-07-29T16:23:00;26.60;48.60
9941;DHT22;5009;50.656;7.188;2022-07-29T16:25:26;26.50;48.70
9941;DHT22;5009;50.656;7.188;2022-07-29T16:27:51;26.50;48.60
9941;DHT22;5009;50.656;7.188;2022-07-29T16:30:17;26.50;48.80